Kalamakion, Greece
Current Conditions -  °F | °C
As of 4:20 AM on Saturday 01 Nov 2014 (Local Time) from LGAV Reporting Station
Few Clouds Few Clouds  
Wind Chill: 55°   Ceiling: Unl
Heat Index: 55°   Visibility: 6mi
Dew Point: 43°   Wind: 17mph
Humidity: 63%   Direction: 30°NNE
Pressure: 30.12"   Gusts: NA
Location:  37.92°N, 23.72°E
Report Text: LGAV 010120Z 03015KT 9999 FEW025 13/06 Q1020 NOSIG
Loading
Personal Weather Stations






























Interactive Weather Map
Tropical Storm Tracking
New forecast layout! Learn more

10-Day Weather Forecast

Advertisements
Track Severe Weather on mobile